Aérodrome :
LOGIN :

S'inscrire | Disclaimer

   EN    FR    IT 

 










Légende :    VFR   VFR Marginal   IFR   IFR Intensif   IFR Très Intensif
Visi : 
Plafond : 
>= 8 km
>= 3000ft
5 à 8 km
1000 à 3000 ft
1500m à 5 km
500 à 1000 ft
800 à 1500m
200 à 500 ft
< 800m
< 200 ft
Symboles :   Orages  Brouillard  Fortes neiges  Fortes précipitations  Vent > 20 kt
SIGMETs :   Divers  Orages  Givrage  Turbulence  Onde Orograph.  Cendres Volcan.







- Altitude de l'aérodrome : 357 ft
- Code IATA : TUF
- Voir les cartes d'approche


LFOT - Tours

DERNIER METAR :
  • 271330Z AUTO 29009KT 250V320 CAVOK 18/13 Q1012 NOSIG

METARs EXPIRÉS :
  • 271300Z AUTO 28005KT 250V310 9999 FEW024 BKN047 OVC066 18/14 Q1013 NOSIG
  • 271230Z AUTO 28007KT 250V310 9999 SCT019 SCT026 OVC060 18/13 Q1013 NOSIG
  • 271200Z AUTO 29006KT 250V320 9999 SCT016 SCT031 BKN041 18/14 Q1013 NOSIG
  • 271130Z AUTO 31005KT 260V350 9999 SCT011 BKN041 BKN054 17/15 Q1013 NOSIG
  • 271100Z AUTO 30006KT 260V320 5000 -RA BR FEW013 BKN032 BKN046 16/14 Q1014 TEMPO BKN011

TAF TAF LFOT
Valide du 27 à 12h jusqu'au 28 à 12h UTC


271100Z 2712/2812 30005KT 9999 BKN030
BECMG 2713/2715 CAVOK
TEMPO 2809/2812 33012G22KT -SHRA SCT035TCU
Pas de NOTAMs connus pour ce terrain.



MET'MAP, la Météo Aéronautique d'un coup d'oeil ! - Copyright ORBIFLY Décembre 2007 - Disclaimer

ORBIFLY MET'MAP TEAM :

Programmation & Développement : Alexandra Zaïnal
Conception & Développement : Baudouin d'Aumeries
Co-Programmation & Développement : Marc-Olivier Méhu
Soutien technique & logistique : Manuel Goepfert

Contact : metmap@orbifly.com




SOURCES & CREDITS :

   NOAA